Time;durP1;ratioP1;P1;durP2;ratioP2;P2;SDS_P1;SDS_P2;PMS_P1;PMS_P2;Temp;Humidity;BMP_temperature;BMP_pressure;BME280_temperature;BME280_humidity;BME280_pressure;Samples;Min_cycle;Max_cycle;Signal;HPM_P1;HPM_P2
2024/03/24 00:01:07;;;;;;;;;2.83;1.17;;;;;8.03;65.75;101219.97;2048725;28;2740906;-87
2024/03/24 00:02:21;;;;;;;;;2.00;2.00;;;;;8.06;65.52;101225.19;2048118;28;2733614;-87
2024/03/24 00:03:36;;;;;;;;;3.83;3.00;;;;;8.07;65.54;101223.44;2038030;28;2754935;-87
2024/03/24 00:04:49;;;;;;;;;2.67;2.00;;;;;8.03;65.40;101214.75;2022052;28;2738815;-87
2024/03/24 00:06:03;;;;;;;;;2.83;2.83;;;;;7.98;65.23;101206.97;2042659;28;2738289;-88
2024/03/24 00:07:16;;;;;;;;;3.83;2.67;;;;;8.01;65.59;101216.53;2033834;28;2741935;-88
2024/03/24 00:08:30;;;;;;;;;1.83;1.83;;;;;7.95;65.51;101200.91;2037236;28;2736775;-88
2024/03/24 00:09:44;;;;;;;;;2.00;1.00;;;;;7.95;65.48;101196.53;2045406;28;2727348;-87
2024/03/24 00:10:57;;;;;;;;;2.67;2.67;;;;;7.99;65.44;101213.06;2036837;28;2740392;-86
2024/03/24 00:12:10;;;;;;;;;5.17;2.50;;;;;8.01;65.62;101203.44;2043117;28;2754447;-87
2024/03/24 00:13:24;;;;;;;;;2.67;2.67;;;;;8.01;65.30;101208.66;2036607;28;2736756;-88
2024/03/24 00:14:38;;;;;;;;;1.00;1.00;;;;;8.01;65.40;101211.28;2013929;28;2737762;-87
2024/03/24 00:15:52;;;;;;;;;2.33;2.00;;;;;7.93;65.57;101198.31;2037655;28;2736727;-88
2024/03/24 00:17:05;;;;;;;;;2.00;2.00;;;;;7.99;65.57;101213.06;2044418;28;2742410;-88
2024/03/24 00:18:18;;;;;;;;;2.67;2.50;;;;;8.01;65.81;101205.19;2036735;28;2731532;-88
2024/03/24 00:19:31;;;;;;;;;2.83;2.83;;;;;7.97;65.95;101202.63;2028551;28;2754431;-88
2024/03/24 00:20:45;;;;;;;;;1.00;1.00;;;;;7.99;65.49;101215.69;2014521;28;2729448;-88
2024/03/24 00:21:58;;;;;;;;;1.33;1.00;;;;;7.94;65.28;101207.91;2044874;28;2746159;-87
2024/03/24 00:23:11;;;;;;;;;1.67;1.67;;;;;7.94;65.59;101214.88;2046257;28;2729444;-88
2024/03/24 00:24:24;;;;;;;;;1.00;1.00;;;;;7.90;65.01;101211.47;2030906;28;2731523;-87
2024/03/24 00:25:38;;;;;;;;;2.00;2.00;;;;;7.92;65.33;101214.03;2030534;28;2734672;-86
2024/03/24 00:26:51;;;;;;;;;2.67;2.67;;;;;7.90;65.60;101210.59;2038376;28;2752341;-88
2024/03/24 00:28:04;;;;;;;;;1.00;1.00;;;;;7.91;65.65;101207.06;2036467;28;2734669;-86
2024/03/24 00:29:17;;;;;;;;;1.17;1.17;;;;;7.88;65.44;101211.47;2036398;28;2746107;-88
2024/03/24 00:30:31;;;;;;;;;3.33;3.33;;;;;7.87;65.34;101217.59;2036710;28;2748193;-86
2024/03/24 00:31:44;;;;;;;;;2.83;2.17;;;;;7.87;65.51;101212.38;2044186;28;2748201;-86
2024/03/24 00:32:58;;;;;;;;;2.00;2.00;;;;;7.90;65.78;101215.81;2034751;28;2737801;-87
2024/03/24 00:34:11;;;;;;;;;3.83;2.33;;;;;7.87;65.54;101220.22;2026930;28;2746099;-87
2024/03/24 00:35:24;;;;;;;;;3.00;1.33;;;;;7.82;65.61;101201.09;2028240;28;2739873;-87
2024/03/24 00:36:37;;;;;;;;;3.17;1.00;;;;;7.85;65.56;101211.50;2022244;28;2733628;-86
2024/03/24 00:37:51;;;;;;;;;2.50;2.00;;;;;7.87;65.03;101216.72;2029840;28;2737777;-87
2024/03/24 00:39:07;;;;;;;;;3.33;2.00;;;;;7.87;65.26;101212.38;2024271;28;2729444;-87
2024/03/24 00:40:20;;;;;;;;;1.00;1.00;;;;;7.83;65.63;101201.94;2032149;28;2738862;-88
2024/03/24 00:41:34;;;;;;;;;1.17;1.17;;;;;7.83;65.11;101213.28;2044033;28;2739845;-88
2024/03/24 00:42:47;;;;;;;;;2.00;2.00;;;;;7.83;65.95;101215.03;2045486;28;2736767;-87
2024/03/24 00:44:01;;;;;;;;;1.83;1.83;;;;;7.82;65.87;101205.44;2044691;28;2736735;-87
2024/03/24 00:45:14;;;;;;;;;1.00;1.00;;;;;7.85;65.70;101208.03;2039460;28;2737777;-87
2024/03/24 00:46:27;;;;;;;;;0.83;0.00;;;;;7.86;65.10;101210.63;2035748;28;2742027;-87
2024/03/24 00:47:40;;;;;;;;;2.33;1.83;;;;;7.83;65.41;101205.41;2028484;28;2738344;-87
2024/03/24 00:48:53;;;;;;;;;1.17;1.17;;;;;7.81;65.29;101203.72;2030517;28;2736859;-88
2024/03/24 00:50:09;;;;;;;;;3.00;1.00;;;;;7.81;65.48;101201.97;2013174;28;2731543;-87
2024/03/24 00:51:22;;;;;;;;;1.50;1.00;;;;;7.82;65.76;101203.72;2032778;28;2741237;-86
2024/03/24 00:52:35;;;;;;;;;2.33;2.33;;;;;7.80;65.46;101191.53;2039468;28;2743024;-86
2024/03/24 00:53:49;;;;;;;;;1.00;1.00;;;;;7.88;65.29;101201.00;2035959;28;2746169;-87
2024/03/24 00:55:02;;;;;;;;;1.17;1.17;;;;;7.88;65.48;101194.88;2038349;28;2741944;-86
2024/03/24 00:56:15;;;;;;;;;1.17;1.17;;;;;7.86;65.69;101197.53;2030588;28;2732584;-87
2024/03/24 00:57:29;;;;;;;;;1.67;1.67;;;;;7.91;65.13;101199.22;2023061;28;2741971;-87
2024/03/24 00:58:42;;;;;;;;;1.50;1.00;;;;;7.83;65.36;101184.47;2029761;28;2737790;-86
2024/03/24 00:59:55;;;;;;;;;1.33;1.33;;;;;7.91;65.53;101201.81;2036511;28;2739840;-87
2024/03/24 01:01:08;;;;;;;;;1.67;1.33;;;;;7.88;65.45;101190.53;2012890;28;2727361;-88
2024/03/24 01:02:21;;;;;;;;;2.83;1.17;;;;;7.90;65.65;101193.13;2035478;28;2739181;-87
2024/03/24 01:03:35;;;;;;;;;1.00;1.00;;;;;7.88;65.36;101190.53;2027078;28;2734683;-86
2024/03/24 01:04:48;;;;;;;;;1.00;1.00;;;;;7.88;65.30;101185.28;2029718;28;2740931;-88
2024/03/24 01:06:01;;;;;;;;;0.83;0.83;;;;;7.88;65.08;101187.91;2043523;28;2733606;-87
2024/03/24 01:07:14;;;;;;;;;1.33;1.17;;;;;7.87;65.02;101187.94;2033435;28;2740902;-87
2024/03/24 01:08:28;;;;;;;;;1.33;1.00;;;;;7.90;65.24;101189.66;2030037;28;2738830;-86
2024/03/24 01:09:41;;;;;;;;;2.00;1.17;;;;;7.91;65.35;101191.34;2044336;28;2737809;-87
2024/03/24 01:10:54;;;;;;;;;2.00;2.00;;;;;7.90;65.48;101182.66;2050389;28;2744003;-87
2024/03/24 01:12:07;;;;;;;;;2.17;2.17;;;;;7.88;65.38;101189.66;2044726;28;2744112;-87
2024/03/24 01:13:22;;;;;;;;;2.17;1.00;;;;;7.89;64.90;101188.78;2044902;28;2739880;-87
2024/03/24 01:14:35;;;;;;;;;1.83;1.00;;;;;7.88;65.65;101187.91;2036553;28;2727734;-86
2024/03/24 01:15:48;;;;;;;;;1.00;1.00;;;;;7.89;64.97;101178.31;2029492;28;2734663;-86
2024/03/24 01:17:02;;;;;;;;;3.67;3.00;;;;;7.87;64.97;101178.34;2037061;28;2748190;-88
2024/03/24 01:18:15;;;;;;;;;1.00;1.00;;;;;7.89;65.23;101180.94;2036198;28;2733592;-86
2024/03/24 01:19:29;;;;;;;;;2.67;1.00;;;;;7.90;65.12;101182.66;2029184;28;2731536;-86
2024/03/24 01:20:42;;;;;;;;;2.67;2.67;;;;;7.93;65.09;101181.72;2037609;28;2735686;-85
2024/03/24 01:21:55;;;;;;;;;0.83;0.83;;;;;7.87;65.47;101173.09;2021953;28;2740421;-86
2024/03/24 01:23:08;;;;;;;;;2.50;1.67;;;;;7.86;65.47;101173.09;2030907;28;2734684;-86
2024/03/24 01:24:21;;;;;;;;;2.83;2.00;;;;;7.85;65.35;101158.31;2036678;28;2748186;-86
2024/03/24 01:25:35;;;;;;;;;1.00;1.00;;;;;7.84;65.99;101170.53;2036895;28;2738846;-86
2024/03/24 01:26:48;;;;;;;;;1.50;1.00;;;;;7.88;65.56;101172.19;2007769;28;2735722;-85
2024/03/24 01:28:01;;;;;;;;;2.33;1.17;;;;;7.88;65.34;101168.72;2036642;28;2746126;-87
2024/03/24 01:29:14;;;;;;;;;3.17;1.83;;;;;7.83;65.17;101167.91;2034078;28;2746107;-85
2024/03/24 01:30:28;;;;;;;;;3.00;2.00;;;;;7.81;65.53;101170.56;2039442;28;2728455;-86
2024/03/24 01:31:41;;;;;;;;;3.00;1.33;;;;;7.82;65.08;101174.03;2046721;28;2732616;-86
2024/03/24 01:32:54;;;;;;;;;0.33;0.33;;;;;7.75;65.54;101171.50;2039221;28;2725273;-86
2024/03/24 01:34:07;;;;;;;;;1.00;1.00;;;;;7.79;65.41;101177.56;2033896;28;2734656;-87
2024/03/24 01:35:21;;;;;;;;;3.83;1.67;;;;;7.80;65.38;101173.22;2030535;28;2732649;-86
2024/03/24 01:36:34;;;;;;;;;2.00;2.00;;;;;7.82;66.05;101174.03;2046937;28;2729469;-87
2024/03/24 01:37:47;;;;;;;;;3.33;1.33;;;;;7.75;65.21;101158.41;2029455;28;2729449;-87
2024/03/24 01:39:01;;;;;;;;;2.50;2.33;;;;;7.77;65.66;101174.13;2035601;28;2731556;-87
2024/03/24 01:40:14;;;;;;;;;4.67;2.67;;;;;7.73;65.71;101156.75;2037682;28;2732565;-87
2024/03/24 01:41:28;;;;;;;;;1.00;1.00;;;;;7.72;65.60;101168.94;2038943;28;2735734;-87
2024/03/24 01:42:41;;;;;;;;;1.83;1.83;;;;;7.77;65.43;101174.13;2038569;28;2735106;-86
2024/03/24 01:43:55;;;;;;;;;1.00;1.00;;;;;7.80;65.86;101176.69;2045968;28;2735686;-87
2024/03/24 01:45:08;;;;;;;;;2.00;2.00;;;;;7.78;65.70;101162.75;2032407;28;2734668;-86
2024/03/24 01:46:25;;;;;;;;;2.33;1.67;;;;;7.73;65.60;101169.81;2030771;28;2729448;-86
2024/03/24 01:47:38;;;;;;;;;2.00;1.00;;;;;7.73;65.18;101164.59;2031193;28;2735682;-86
2024/03/24 01:48:52;;;;;;;;;1.00;1.00;;;;;7.70;65.73;101159.38;2044156;28;2736178;-87
2024/03/24 01:50:06;;;;;;;;;1.00;1.00;;;;;7.75;65.58;101170.66;2044900;28;2739848;-87
2024/03/24 01:51:19;;;;;;;;;3.00;1.17;;;;;7.72;65.96;101165.47;2014142;28;2735698;-87
2024/03/24 01:52:33;;;;;;;;;1.50;1.33;;;;;7.67;65.51;101156.81;2040045;28;2739844;-87
2024/03/24 01:53:47;;;;;;;;;3.67;2.00;;;;;7.72;65.51;101162.84;2036228;28;2728395;-87
2024/03/24 01:55:00;;;;;;;;;1.00;1.00;;;;;7.73;65.74;101161.97;2030627;28;2743017;-87
2024/03/24 01:56:14;;;;;;;;;0.83;0.83;;;;;7.71;66.05;101153.25;2047586;28;2739864;-86
2024/03/24 01:57:27;;;;;;;;;3.83;1.33;;;;;7.72;65.74;101147.16;2050532;28;2735670;-86
2024/03/24 01:58:40;;;;;;;;;4.00;2.00;;;;;7.78;65.75;101157.50;2006137;28;2737804;-87
2024/03/24 01:59:54;;;;;;;;;3.17;2.50;;;;;7.74;65.82;101153.22;2035850;28;2733619;-86
2024/03/24 02:01:08;;;;;;;;;2.33;1.67;;;;;7.79;65.62;101159.25;2038001;28;2741928;-87
2024/03/24 02:02:21;;;;;;;;;4.50;2.17;;;;;7.70;65.40;101143.69;2043957;28;2750297;-87
2024/03/24 02:03:37;;;;;;;;;2.33;1.83;;;;;7.76;65.79;101149.69;2037020;28;2733638;-86
2024/03/24 02:04:51;;;;;;;;;2.00;2.00;;;;;7.78;65.81;101154.06;2039336;28;2734681;-87
2024/03/24 02:06:04;;;;;;;;;2.83;1.50;;;;;7.77;65.95;101155.81;2046272;28;2733614;-87
2024/03/24 02:07:18;;;;;;;;;2.67;1.83;;;;;7.72;65.82;101147.16;2045706;28;2739841;-87
2024/03/24 02:08:32;;;;;;;;;2.00;1.00;;;;;7.74;65.63;101140.13;2045344;28;2744055;-87
2024/03/24 02:09:45;;;;;;;;;3.17;1.83;;;;;7.69;65.11;101142.81;2038290;28;2731011;-87
2024/03/24 02:10:59;;;;;;;;;1.83;1.83;;;;;7.72;65.23;101158.47;2041408;28;2736744;-86
2024/03/24 02:12:12;;;;;;;;;3.17;1.00;;;;;7.68;65.22;101142.84;2029369;28;2737766;-87
2024/03/24 02:13:25;;;;;;;;;2.67;2.50;;;;;7.67;65.61;101146.34;2031194;28;2733635;-87
2024/03/24 02:14:39;;;;;;;;;2.67;1.17;;;;;7.65;65.78;101143.75;2030324;28;2741936;-86
2024/03/24 02:15:52;;;;;;;;;2.17;2.00;;;;;7.69;66.14;101152.41;2035507;28;2740949;-88
2024/03/24 02:17:06;;;;;;;;;3.50;1.50;;;;;7.70;65.92;101155.03;2041357;28;2735678;-87
2024/03/24 02:18:19;;;;;;;;;2.83;1.17;;;;;7.73;65.87;101164.59;2037181;28;2728426;-87
2024/03/24 02:19:33;;;;;;;;;2.00;2.00;;;;;7.73;65.72;101154.97;2035739;28;2733595;-86
2024/03/24 02:20:46;;;;;;;;;3.33;2.33;;;;;7.70;65.90;101160.25;2036287;28;2730510;-86
2024/03/24 02:21:59;;;;;;;;;1.50;1.50;;;;;7.66;65.13;101142.84;2030527;28;2731539;-87
2024/03/24 02:23:12;;;;;;;;;1.50;1.50;;;;;7.68;65.05;101148.09;2038959;28;2739865;-87
2024/03/24 02:24:26;;;;;;;;;2.33;2.33;;;;;7.68;65.63;101145.47;2043318;28;2728379;-86
2024/03/24 02:25:39;;;;;;;;;3.00;2.00;;;;;7.68;65.47;101151.53;2053282;28;2739872;-88
2024/03/24 02:26:53;;;;;;;;;1.67;1.67;;;;;7.68;65.26;101161.16;2039007;28;2734641;-87
2024/03/24 02:28:06;;;;;;;;;1.00;1.00;;;;;7.62;65.63;101143.78;2032967;28;2737772;-86
2024/03/24 02:29:20;;;;;;;;;1.17;1.17;;;;;7.63;65.76;101138.53;2037017;28;2744042;-87
2024/03/24 02:30:33;;;;;;;;;1.00;1.00;;;;;7.67;65.68;101148.97;2036989;28;2737766;-86
2024/03/24 02:31:46;;;;;;;;;1.83;1.83;;;;;7.67;65.75;101144.59;2037322;28;2732564;-87
2024/03/24 02:33:00;;;;;;;;;2.17;2.17;;;;;7.68;65.61;101142.84;2036778;28;2731544;-86
2024/03/24 02:34:14;;;;;;;;;2.17;2.17;;;;;7.69;65.71;101148.06;2033091;28;2738100;-86
2024/03/24 02:35:27;;;;;;;;;2.00;1.00;;;;;7.68;65.27;101146.31;2044990;28;2728463;-87
2024/03/24 02:36:40;;;;;;;;;1.33;1.33;;;;;7.72;65.31;101152.38;2038953;28;2733627;-87
2024/03/24 02:37:53;;;;;;;;;3.33;2.00;;;;;7.67;64.95;101141.09;2037326;28;2732593;-87
2024/03/24 02:39:06;;;;;;;;;1.17;1.17;;;;;7.64;65.47;101140.28;2031815;28;2726315;-86
2024/03/24 02:40:20;;;;;;;;;1.67;1.67;;;;;7.61;65.57;101140.31;2030226;28;2738851;-87
2024/03/24 02:41:33;;;;;;;;;2.00;2.00;;;;;7.62;65.52;101130.72;2030450;28;2733592;-87
2024/03/24 02:42:46;;;;;;;;;4.83;2.33;;;;;7.70;65.83;101139.34;2041914;28;2746099;-87
2024/03/24 02:43:59;;;;;;;;;2.00;2.00;;;;;7.70;65.17;101135.84;2007656;28;2732596;-88
2024/03/24 02:45:13;;;;;;;;;2.00;2.00;;;;;7.67;65.68;101138.50;2023570;28;2734684;-87
2024/03/24 02:46:26;;;;;;;;;2.67;2.67;;;;;7.70;65.39;101133.22;2034766;28;2738804;-87
2024/03/24 02:47:39;;;;;;;;;0.00;0.00;;;;;7.70;65.53;101134.09;2035768;28;2727693;-87
2024/03/24 02:48:52;;;;;;;;;3.67;2.17;;;;;7.71;65.60;101135.81;2026702;28;2732564;-87
2024/03/24 02:50:07;;;;;;;;;1.00;1.00;;;;;7.71;65.70;101134.94;2038774;28;2734645;-86
2024/03/24 02:51:20;;;;;;;;;1.00;1.00;;;;;7.75;65.10;101145.34;2029061;28;2733600;-87
2024/03/24 02:52:33;;;;;;;;;2.00;2.00;;;;;7.73;65.44;101133.19;2035443;28;2735018;-87
2024/03/24 02:53:46;;;;;;;;;1.00;1.00;;;;;7.76;64.91;101143.59;2032298;28;2731535;-87
2024/03/24 02:54:59;;;;;;;;;1.83;1.67;;;;;7.74;64.99;101140.13;2038431;28;2741980;-87
2024/03/24 02:56:13;;;;;;;;;1.83;1.50;;;;;7.73;65.41;101148.88;2046195;28;2725298;-86
2024/03/24 02:57:26;;;;;;;;;1.33;1.00;;;;;7.69;65.06;101142.81;2029657;28;2740890;-86
2024/03/24 02:58:39;;;;;;;;;3.33;2.00;;;;;7.70;65.27;101134.09;2033092;28;2733642;-87
2024/03/24 02:59:53;;;;;;;;;2.17;1.67;;;;;7.72;65.02;101147.16;2029362;28;2734688;-86
2024/03/24 03:01:06;;;;;;;;;1.33;1.33;;;;;7.71;65.34;101140.16;2037530;28;2738842;-86
2024/03/24 03:02:20;;;;;;;;;3.33;1.00;;;;;7.64;65.48;101128.94;2044761;28;2729461;-86
2024/03/24 03:03:33;;;;;;;;;1.83;1.83;;;;;7.70;65.46;101133.22;2033299;28;2729496;-86
2024/03/24 03:04:46;;;;;;;;;3.00;1.00;;;;;7.71;65.10;101138.44;2022398;28;2732954;-87
2024/03/24 03:05:59;;;;;;;;;2.83;2.83;;;;;7.70;64.80;101138.47;2035266;28;2746118;-87
2024/03/24 03:07:12;;;;;;;;;2.83;2.83;;;;;7.73;65.22;101139.25;2028944;28;2734707;-86
2024/03/24 03:08:25;;;;;;;;;1.67;1.67;;;;;7.71;65.31;101137.56;2021801;28;2736159;-86
2024/03/24 03:09:39;;;;;;;;;2.17;2.00;;;;;7.71;64.82;101135.81;2036174;28;2725289;-87
2024/03/24 03:10:52;;;;;;;;;2.00;1.83;;;;;7.70;65.54;101126.25;2043606;28;2744054;-87
2024/03/24 03:12:06;;;;;;;;;2.00;2.00;;;;;7.75;65.38;101139.25;2050675;28;2721111;-86
2024/03/24 03:13:19;;;;;;;;;1.67;1.67;;;;;7.72;65.31;101137.56;2036937;28;2744043;-86
2024/03/24 03:14:32;;;;;;;;;3.17;1.00;;;;;7.73;65.39;101138.44;2028505;28;2741972;-87
2024/03/24 03:15:45;;;;;;;;;1.83;1.67;;;;;7.72;65.41;101141.91;2027987;28;2742971;-87
2024/03/24 03:16:59;;;;;;;;;2.33;2.00;;;;;7.72;64.68;101139.28;2035407;28;2737853;-86
2024/03/24 03:18:12;;;;;;;;;2.00;2.00;;;;;7.70;65.24;101138.47;2044303;28;2737785;-86
2024/03/24 03:19:25;;;;;;;;;2.67;2.00;;;;;7.71;65.08;101134.94;2044896;28;2730500;-86
2024/03/24 03:20:38;;;;;;;;;3.33;1.83;;;;;7.73;64.89;101139.25;2045248;28;2730469;-87
2024/03/24 03:21:52;;;;;;;;;4.67;2.67;;;;;7.62;65.06;101126.34;2036306;28;2734676;-86
2024/03/24 03:23:05;;;;;;;;;3.00;1.00;;;;;7.67;65.12;101139.38;2044335;28;2736728;-87
2024/03/24 03:24:18;;;;;;;;;2.00;1.83;;;;;7.66;64.26;101137.63;2037568;28;2733674;-86
2024/03/24 03:25:32;;;;;;;;;1.83;1.83;;;;;7.65;64.77;101141.16;2031054;28;2741951;-86
2024/03/24 03:26:45;;;;;;;;;1.33;1.33;;;;;7.69;65.20;101142.81;2045748;28;2735685;-86
2024/03/24 03:27:58;;;;;;;;;1.00;1.00;;;;;7.68;65.18;101146.31;2029385;28;2736083;-87
2024/03/24 03:29:11;;;;;;;;;4.00;2.33;;;;;7.66;65.09;101142.84;2034178;28;2733631;-86
2024/03/24 03:30:25;;;;;;;;;4.50;2.33;;;;;7.68;64.96;101142.84;2043726;28;2748185;-86
2024/03/24 03:31:38;;;;;;;;;2.00;1.50;;;;;7.65;64.94;101135.91;2036358;28;2729448;-86
2024/03/24 03:32:51;;;;;;;;;1.83;1.83;;;;;7.62;65.23;101142.03;2030631;28;2736237;-86
2024/03/24 03:34:04;;;;;;;;;0.17;0.17;;;;;7.67;64.90;101146.34;2033220;28;2735136;-87
2024/03/24 03:35:17;;;;;;;;;2.33;2.00;;;;;7.60;65.13;101133.38;2036702;28;2744022;-86
2024/03/24 03:36:31;;;;;;;;;2.17;1.33;;;;;7.64;65.11;101149.88;2031142;28;2735769;-88
2024/03/24 03:37:44;;;;;;;;;2.00;2.00;;;;;7.63;64.47;101150.78;2037877;28;2737769;-87
2024/03/24 03:38:57;;;;;;;;;4.00;2.00;;;;;7.57;64.94;101145.59;2036606;28;2741928;-88
2024/03/24 03:40:11;;;;;;;;;1.00;1.00;;;;;7.52;64.36;101140.44;2030074;28;2737179;-86
2024/03/24 03:41:24;;;;;;;;;1.00;1.00;;;;;7.50;64.35;101142.22;2031524;28;2741951;-86
2024/03/24 03:42:37;;;;;;;;;2.33;1.00;;;;;7.43;64.73;101129.19;2037126;28;2733604;-86
2024/03/24 03:43:50;;;;;;;;;2.17;2.00;;;;;7.45;64.73;101133.56;2028926;28;2742993;-87
2024/03/24 03:45:04;;;;;;;;;2.17;2.17;;;;;7.41;64.36;101138.81;2029009;28;2729457;-86
2024/03/24 03:46:17;;;;;;;;;3.17;2.50;;;;;7.40;64.75;101142.34;2029541;28;2737777;-86
2024/03/24 03:47:30;;;;;;;;;1.83;1.17;;;;;7.31;64.75;101130.22;2039817;28;2744030;-87
2024/03/24 03:48:44;;;;;;;;;1.67;1.67;;;;;7.37;65.61;101139.75;2044546;28;2744079;-87
2024/03/24 03:49:57;;;;;;;;;1.83;1.83;;;;;7.39;65.17;101145.84;2036837;28;2746099;-86
2024/03/24 03:51:29;;;;;;;;;1.67;1.00;;;;;7.36;65.05;101142.41;2035444;28;2737788;-86
2024/03/24 03:52:47;;;;;;;;;2.00;1.00;;;;;7.39;65.44;101139.72;2041061;28;2737762;-87
2024/03/24 03:54:01;;;;;;;;;3.50;1.50;;;;;7.37;65.56;101138.88;2036587;28;2737793;-86
2024/03/24 03:55:15;;;;;;;;;1.50;1.50;;;;;7.40;65.39;101151.94;2037572;28;2746145;-87
2024/03/24 03:56:28;;;;;;;;;4.00;1.83;;;;;7.43;65.57;101149.28;2046071;28;2732553;-88
2024/03/24 03:57:42;;;;;;;;;2.00;2.00;;;;;7.35;65.23;101138.06;2042262;28;2744035;-86
2024/03/24 03:58:55;;;;;;;;;2.00;2.00;;;;;7.42;64.82;101153.66;2036131;28;2739889;-87
2024/03/24 04:00:12;;;;;;;;;2.67;0.83;;;;;7.41;65.12;101154.53;2028367;28;2735035;-87
2024/03/24 04:01:25;;;;;;;;;3.50;2.17;;;;;7.32;65.03;101155.50;2034951;28;2739849;-87
2024/03/24 04:02:39;;;;;;;;;1.00;1.00;;;;;7.30;65.17;101146.81;2036494;28;2729445;-87
2024/03/24 04:03:53;;;;;;;;;1.83;1.17;;;;;7.30;65.07;101153.81;2037828;28;2737794;-88
2024/03/24 04:05:09;;;;;;;;;2.00;0.17;;;;;7.27;65.34;101151.22;2036873;28;2731524;-86
2024/03/24 04:06:23;;;;;;;;;1.17;1.17;;;;;7.21;65.31;101139.06;2036432;28;2735695;-87
2024/03/24 04:07:36;;;;;;;;;1.00;1.00;;;;;7.20;64.87;101142.59;2042114;28;2737757;-87
2024/03/24 04:08:50;;;;;;;;;2.00;0.17;;;;;7.20;65.21;101143.47;2037590;28;2736728;-86
2024/03/24 04:10:04;;;;;;;;;3.33;0.00;;;;;7.22;65.65;101143.44;2035679;28;2734652;-86
2024/03/24 04:11:17;;;;;;;;;4.33;2.83;;;;;7.22;65.56;101143.44;2037990;28;2740867;-87
2024/03/24 04:12:31;;;;;;;;;2.00;2.00;;;;;7.24;65.37;101146.88;2044723;28;2744259;-86
2024/03/24 04:13:47;;;;;;;;;4.50;2.33;;;;;7.24;65.00;101140.78;2037628;28;2746135;-88
2024/03/24 04:15:01;;;;;;;;;2.00;2.00;;;;;7.25;65.79;101153.84;2045065;28;2741935;-86
2024/03/24 04:16:18;;;;;;;;;2.33;2.00;;;;;7.22;65.37;101139.94;2029820;28;2746087;-88
2024/03/24 04:17:31;;;;;;;;;1.00;1.00;;;;;7.27;65.04;101152.09;2038306;28;2736740;-86
2024/03/24 04:18:46;;;;;;;;;1.67;1.00;;;;;7.27;65.19;101149.47;2044701;28;2740913;-86
2024/03/24 04:20:07;;;;;;;;;1.33;1.00;;;;;7.22;65.60;101143.44;2044804;28;2736755;-86
2024/03/24 04:21:20;;;;;;;;;3.00;1.50;;;;;7.20;65.57;101133.00;2036991;28;2744062;-86
2024/03/24 04:22:33;;;;;;;;;4.00;3.00;;;;;7.15;65.23;101136.56;2018232;28;2744047;-87
2024/03/24 04:23:46;;;;;;;;;3.83;2.00;;;;;7.24;65.64;101157.34;2047258;28;2744027;-87
2024/03/24 04:24:59;;;;;;;;;2.00;1.00;;;;;7.19;65.89;101146.94;2043036;28;2746138;-87
2024/03/24 04:26:13;;;;;;;;;3.00;1.00;;;;;7.22;65.74;101153.03;2036330;28;2744031;-86
2024/03/24 04:27:26;;;;;;;;;2.00;2.00;;;;;7.18;65.16;101145.25;2044177;28;2746126;-86
2024/03/24 04:28:39;;;;;;;;;3.67;1.50;;;;;7.23;65.44;101163.47;2044337;28;2739857;-86
2024/03/24 04:29:52;;;;;;;;;1.83;1.83;;;;;7.24;66.19;101162.56;2035771;28;2746111;-86
2024/03/24 04:31:06;;;;;;;;;1.67;1.17;;;;;7.28;65.13;101166.03;2020721;28;2740899;-87
2024/03/24 04:32:19;;;;;;;;;1.00;1.00;;;;;7.26;65.80;101160.81;2030033;28;2736724;-86
2024/03/24 04:33:32;;;;;;;;;2.67;1.83;;;;;7.28;65.80;101160.81;2028245;28;2746154;-87
2024/03/24 04:34:45;;;;;;;;;2.67;1.00;;;;;7.28;65.62;101166.03;2036994;28;2737762;-86
2024/03/24 04:35:58;;;;;;;;;2.17;1.00;;;;;7.25;65.89;101153.00;2043140;28;2738842;-86
2024/03/24 04:37:12;;;;;;;;;2.17;1.00;;;;;7.28;65.79;101163.41;2043199;28;2737770;-87
2024/03/24 04:38:25;;;;;;;;;2.17;1.50;;;;;7.27;65.39;101159.06;2029273;28;2736740;-86
2024/03/24 04:39:38;;;;;;;;;1.33;1.33;;;;;7.27;65.68;101159.06;2036394;28;2746095;-86
2024/03/24 04:40:51;;;;;;;;;3.17;2.00;;;;;7.27;65.92;101161.69;2028066;28;2738826;-87
2024/03/24 04:42:04;;;;;;;;;4.00;1.83;;;;;7.18;65.21;101153.06;2033573;28;2744043;-86
2024/03/24 04:43:18;;;;;;;;;2.33;2.00;;;;;7.30;65.67;101178.22;2045484;28;2732569;-86
2024/03/24 04:44:31;;;;;;;;;2.00;2.00;;;;;7.24;65.50;101162.56;2033934;28;2730470;-86
2024/03/24 04:45:44;;;;;;;;;3.33;2.17;;;;;7.31;65.95;101173.81;2029652;28;2735745;-86
2024/03/24 04:46:57;;;;;;;;;2.17;1.17;;;;;7.28;65.61;101171.25;2041715;28;2739860;-86
2024/03/24 04:48:14;;;;;;;;;2.33;0.83;;;;;7.30;66.15;101172.09;2035032;28;2737781;-86
2024/03/24 04:49:27;;;;;;;;;3.83;1.67;;;;;7.32;65.90;101171.19;2038236;28;2744024;-86
2024/03/24 04:50:40;;;;;;;;;1.33;1.00;;;;;7.33;66.01;101166.84;2044215;28;2730475;-86
2024/03/24 04:51:53;;;;;;;;;2.67;1.17;;;;;7.34;65.54;101168.56;2037951;28;2737800;-86
2024/03/24 04:53:06;;;;;;;;;1.33;0.83;;;;;7.32;65.25;101170.34;2046031;28;2734652;-86
2024/03/24 04:54:20;;;;;;;;;2.83;2.83;;;;;7.31;65.46;101166.84;2052546;28;2741959;-86
2024/03/24 04:55:33;;;;;;;;;1.83;1.83;;;;;7.32;65.82;101159.88;2028259;28;2746127;-86
2024/03/24 04:56:47;;;;;;;;;2.17;1.83;;;;;7.34;65.70;101167.69;2037239;28;2739837;-86
2024/03/24 04:58:00;;;;;;;;;2.17;1.83;;;;;7.34;65.49;101173.78;2045001;28;2741249;-86
2024/03/24 04:59:13;;;;;;;;;2.33;1.17;;;;;7.37;65.64;101175.50;2044671;28;2737778;-86
2024/03/24 05:00:26;;;;;;;;;2.67;1.33;;;;;7.32;65.40;101170.34;2044135;28;2746126;-86
2024/03/24 05:01:39;;;;;;;;;0.67;0.67;;;;;7.33;65.63;101172.06;2035496;28;2727352;-86
2024/03/24 05:02:53;;;;;;;;;1.83;1.83;;;;;7.32;65.68;101176.44;2035408;28;2744047;-86
2024/03/24 05:04:06;;;;;;;;;1.00;1.00;;;;;7.33;65.95;101182.53;2036353;28;2739872;-85
2024/03/24 05:05:19;;;;;;;;;2.00;2.00;;;;;7.28;65.83;101171.25;2035952;28;2741948;-86
2024/03/24 05:06:32;;;;;;;;;2.50;1.00;;;;;7.31;65.82;101181.66;2039483;28;2744031;-86
2024/03/24 05:07:49;;;;;;;;;1.17;1.00;;;;;7.33;65.62;101182.53;2035218;28;2733615;-86
2024/03/24 05:09:04;;;;;;;;;3.00;1.50;;;;;7.30;65.39;101200.88;2038302;28;2739879;-85
2024/03/24 05:10:20;;;;;;;;;2.33;2.00;;;;;7.25;65.73;101189.59;2044666;28;2738811;-86
2024/03/24 05:11:34;;;;;;;;;3.17;1.50;;;;;7.25;65.83;101189.59;2042838;28;2738257;-86
2024/03/24 05:12:48;;;;;;;;;1.83;1.50;;;;;7.24;65.88;101187.84;2027831;28;2746583;-86
2024/03/24 05:14:01;;;;;;;;;4.67;1.00;;;;;7.22;65.15;101184.41;2028505;28;2745088;-85
2024/03/24 05:15:14;;;;;;;;;2.00;0.83;;;;;7.15;65.73;101174.03;2044573;28;2736228;-85
2024/03/24 05:16:31;;;;;;;;;2.00;1.50;;;;;7.19;65.39;101186.16;2042911;28;2742977;-86
2024/03/24 05:17:44;;;;;;;;;3.67;1.00;;;;;7.20;65.84;101180.06;2038538;28;2740938;-86
2024/03/24 05:19:01;;;;;;;;;3.00;1.00;;;;;7.22;65.55;101173.94;2043980;28;2737798;-85
2024/03/24 05:20:14;;;;;;;;;0.00;0.00;;;;;7.18;65.77;101168.75;2037131;28;2729456;-85
2024/03/24 05:21:27;;;;;;;;;4.67;1.00;;;;;7.19;65.31;101170.47;2030919;28;2746091;-86
2024/03/24 05:22:40;;;;;;;;;1.67;1.67;;;;;7.18;65.45;101163.53;2030353;28;2739852;-85
2024/03/24 05:23:54;;;;;;;;;2.83;1.17;;;;;7.20;65.31;101163.50;2036628;28;2741996;-87
2024/03/24 05:25:08;;;;;;;;;4.17;2.00;;;;;7.19;64.95;101154.78;2036019;28;2746461;-86
2024/03/24 05:26:21;;;;;;;;;1.33;1.00;;;;;7.20;65.12;101159.16;2036768;28;2737759;-85
2024/03/24 05:27:35;;;;;;;;;0.67;0.00;;;;;7.26;65.49;101167.81;2045280;28;2725302;-85
2024/03/24 05:28:48;;;;;;;;;1.67;1.67;;;;;7.19;65.49;101151.31;2035406;28;2742969;-85
2024/03/24 05:30:01;;;;;;;;;2.00;2.00;;;;;7.24;65.16;101157.34;2036722;28;2737794;-86
2024/03/24 05:31:14;;;;;;;;;1.67;1.67;;;;;7.31;64.94;101168.59;2026518;28;2739856;-85
2024/03/24 05:32:27;;;;;;;;;1.83;1.83;;;;;7.29;64.99;101171.22;2030604;28;2746103;-86
2024/03/24 05:33:41;;;;;;;;;2.17;1.33;;;;;7.31;64.66;101168.59;2042777;28;2738799;-85
2024/03/24 05:34:54;;;;;;;;;5.17;2.00;;;;;7.34;65.34;101176.41;2037436;28;2740930;-86
2024/03/24 05:36:08;;;;;;;;;3.17;2.50;;;;;7.36;64.90;101173.78;2042940;28;2744006;-86
2024/03/24 05:37:21;;;;;;;;;2.67;0.33;;;;;7.38;65.26;101172.03;2042711;28;2737766;-86
2024/03/24 05:38:35;;;;;;;;;1.00;1.00;;;;;7.40;64.81;101173.72;2028962;28;2735703;-85